sensor_id;sensor_type;location;lat;lon;timestamp;temperature;humidity
6988;DHT22;3534;49.960;8.018;2023-07-31T00:00:11;20.40;99.90
6988;DHT22;3534;49.960;8.018;2023-07-31T00:02:38;20.40;99.90
6988;DHT22;3534;49.960;8.018;2023-07-31T00:05:05;20.40;99.90
6988;DHT22;3534;49.960;8.018;2023-07-31T00:07:33;20.40;99.90
6988;DHT22;3534;49.960;8.018;2023-07-31T00:10:00;20.40;99.90
6988;DHT22;3534;49.960;8.018;2023-07-31T00:12:28;20.40;99.90
6988;DHT22;3534;49.960;8.018;2023-07-31T00:14:54;20.40;99.90
6988;DHT22;3534;49.960;8.018;2023-07-31T00:17:21;20.40;99.90
6988;DHT22;3534;49.960;8.018;2023-07-31T00:19:48;20.30;99.90
6988;DHT22;3534;49.960;8.018;2023-07-31T00:22:16;20.30;99.90
6988;DHT22;3534;49.960;8.018;2023-07-31T00:24:44;20.30;99.90
6988;DHT22;3534;49.960;8.018;2023-07-31T00:27:11;20.30;99.90
6988;DHT22;3534;49.960;8.018;2023-07-31T00:29:38;20.30;99.90
6988;DHT22;3534;49.960;8.018;2023-07-31T00:32:05;20.30;99.90
6988;DHT22;3534;49.960;8.018;2023-07-31T00:34:32;20.30;99.90
6988;DHT22;3534;49.960;8.018;2023-07-31T00:36:59;20.30;99.90
6988;DHT22;3534;49.960;8.018;2023-07-31T00:39:26;20.30;99.90
6988;DHT22;3534;49.960;8.018;2023-07-31T00:41:54;20.30;99.90
6988;DHT22;3534;49.960;8.018;2023-07-31T00:44:21;20.20;99.90
6988;DHT22;3534;49.960;8.018;2023-07-31T00:46:48;20.30;99.90
6988;DHT22;3534;49.960;8.018;2023-07-31T00:49:15;20.30;99.90
6988;DHT22;3534;49.960;8.018;2023-07-31T00:51:42;20.30;99.90
6988;DHT22;3534;49.960;8.018;2023-07-31T00:54:09;20.30;99.90
6988;DHT22;3534;49.960;8.018;2023-07-31T00:56:37;20.30;99.90
6988;DHT22;3534;49.960;8.018;2023-07-31T00:59:05;20.30;99.90
6988;DHT22;3534;49.960;8.018;2023-07-31T01:01:32;20.30;99.90
6988;DHT22;3534;49.960;8.018;2023-07-31T01:03:59;20.30;99.90
6988;DHT22;3534;49.960;8.018;2023-07-31T01:06:30;20.30;99.90
6988;DHT22;3534;49.960;8.018;2023-07-31T01:09:02;20.30;99.90
6988;DHT22;3534;49.960;8.018;2023-07-31T01:11:31;20.30;99.90
6988;DHT22;3534;49.960;8.018;2023-07-31T01:13:58;20.30;99.90
6988;DHT22;3534;49.960;8.018;2023-07-31T01:16:26;20.20;99.90
6988;DHT22;3534;49.960;8.018;2023-07-31T01:18:53;20.20;99.90
6988;DHT22;3534;49.960;8.018;2023-07-31T01:21:35;20.20;99.90
6988;DHT22;3534;49.960;8.018;2023-07-31T01:24:20;20.20;99.90
6988;DHT22;3534;49.960;8.018;2023-07-31T01:26:54;20.20;99.90
6988;DHT22;3534;49.960;8.018;2023-07-31T01:29:38;20.30;99.90
6988;DHT22;3534;49.960;8.018;2023-07-31T01:32:08;20.30;99.90
6988;DHT22;3534;49.960;8.018;2023-07-31T01:34:36;20.30;99.90
6988;DHT22;3534;49.960;8.018;2023-07-31T01:37:03;20.20;99.90
6988;DHT22;3534;49.960;8.018;2023-07-31T01:39:30;20.20;99.90
6988;DHT22;3534;49.960;8.018;2023-07-31T01:41:58;20.20;99.90
6988;DHT22;3534;49.960;8.018;2023-07-31T01:44:25;20.20;99.90
6988;DHT22;3534;49.960;8.018;2023-07-31T01:46:52;20.20;99.90
6988;DHT22;3534;49.960;8.018;2023-07-31T01:49:18;20.20;99.90
6988;DHT22;3534;49.960;8.018;2023-07-31T01:51:45;20.20;99.90
6988;DHT22;3534;49.960;8.018;2023-07-31T01:54:12;20.10;99.90
6988;DHT22;3534;49.960;8.018;2023-07-31T01:56:39;20.10;99.90
6988;DHT22;3534;49.960;8.018;2023-07-31T01:59:07;20.10;99.90
6988;DHT22;3534;49.960;8.018;2023-07-31T02:01:33;20.10;99.90
6988;DHT22;3534;49.960;8.018;2023-07-31T02:04:00;20.10;99.90
6988;DHT22;3534;49.960;8.018;2023-07-31T02:06:27;20.10;99.90
6988;DHT22;3534;49.960;8.018;2023-07-31T02:08:54;20.10;99.90
6988;DHT22;3534;49.960;8.018;2023-07-31T02:11:21;20.10;99.90
6988;DHT22;3534;49.960;8.018;2023-07-31T02:13:47;20.10;99.90
6988;DHT22;3534;49.960;8.018;2023-07-31T02:16:15;20.10;99.90
6988;DHT22;3534;49.960;8.018;2023-07-31T02:18:42;20.00;99.90
6988;DHT22;3534;49.960;8.018;2023-07-31T02:21:09;20.00;99.90
6988;DHT22;3534;49.960;8.018;2023-07-31T02:23:36;20.00;99.90
6988;DHT22;3534;49.960;8.018;2023-07-31T02:26:03;20.00;99.90
6988;DHT22;3534;49.960;8.018;2023-07-31T02:28:28;20.00;99.90
6988;DHT22;3534;49.960;8.018;2023-07-31T02:30:55;20.00;99.90
6988;DHT22;3534;49.960;8.018;2023-07-31T02:33:23;20.00;99.90
6988;DHT22;3534;49.960;8.018;2023-07-31T02:35:50;20.00;99.90
6988;DHT22;3534;49.960;8.018;2023-07-31T02:38:17;20.10;99.90
6988;DHT22;3534;49.960;8.018;2023-07-31T02:40:44;20.00;99.90
6988;DHT22;3534;49.960;8.018;2023-07-31T02:43:11;20.00;99.90
6988;DHT22;3534;49.960;8.018;2023-07-31T02:45:38;20.00;99.90
6988;DHT22;3534;49.960;8.018;2023-07-31T02:48:05;20.00;99.90
6988;DHT22;3534;49.960;8.018;2023-07-31T02:50:33;20.00;99.90
6988;DHT22;3534;49.960;8.018;2023-07-31T02:53:00;20.00;99.90
6988;DHT22;3534;49.960;8.018;2023-07-31T02:55:27;20.00;99.90
6988;DHT22;3534;49.960;8.018;2023-07-31T02:57:54;20.00;99.90
6988;DHT22;3534;49.960;8.018;2023-07-31T03:00:20;20.00;99.90
6988;DHT22;3534;49.960;8.018;2023-07-31T03:02:47;20.00;99.90
6988;DHT22;3534;49.960;8.018;2023-07-31T03:05:14;19.90;99.90
6988;DHT22;3534;49.960;8.018;2023-07-31T03:07:42;19.90;99.90
6988;DHT22;3534;49.960;8.018;2023-07-31T03:10:09;19.90;99.90
6988;DHT22;3534;49.960;8.018;2023-07-31T03:12:36;19.90;99.90
6988;DHT22;3534;49.960;8.018;2023-07-31T03:15:03;19.90;99.90
6988;DHT22;3534;49.960;8.018;2023-07-31T03:17:30;19.90;99.90
6988;DHT22;3534;49.960;8.018;2023-07-31T03:19:57;19.90;99.90
6988;DHT22;3534;49.960;8.018;2023-07-31T03:22:24;19.80;99.90
6988;DHT22;3534;49.960;8.018;2023-07-31T03:24:52;19.80;99.90
6988;DHT22;3534;49.960;8.018;2023-07-31T03:27:19;19.90;99.90
6988;DHT22;3534;49.960;8.018;2023-07-31T03:29:45;19.90;99.90
6988;DHT22;3534;49.960;8.018;2023-07-31T03:32:12;19.90;99.90
6988;DHT22;3534;49.960;8.018;2023-07-31T03:34:39;19.80;99.90
6988;DHT22;3534;49.960;8.018;2023-07-31T03:37:06;19.80;99.90
6988;DHT22;3534;49.960;8.018;2023-07-31T03:39:34;19.80;99.90
6988;DHT22;3534;49.960;8.018;2023-07-31T03:42:03;19.80;99.90
6988;DHT22;3534;49.960;8.018;2023-07-31T03:44:30;19.80;99.90
6988;DHT22;3534;49.960;8.018;2023-07-31T03:46:56;19.80;99.90
6988;DHT22;3534;49.960;8.018;2023-07-31T03:49:23;19.80;99.90
6988;DHT22;3534;49.960;8.018;2023-07-31T03:51:50;19.80;99.90
6988;DHT22;3534;49.960;8.018;2023-07-31T03:54:17;19.80;99.90
6988;DHT22;3534;49.960;8.018;2023-07-31T03:59:13;19.80;99.90
6988;DHT22;3534;49.960;8.018;2023-07-31T04:01:40;19.80;99.90
6988;DHT22;3534;49.960;8.018;2023-07-31T04:04:06;19.70;99.90
6988;DHT22;3534;49.960;8.018;2023-07-31T04:06:33;19.70;99.90
6988;DHT22;3534;49.960;8.018;2023-07-31T04:09:01;19.70;99.90
6988;DHT22;3534;49.960;8.018;2023-07-31T04:11:28;19.70;99.90
6988;DHT22;3534;49.960;8.018;2023-07-31T04:13:55;19.80;99.90
6988;DHT22;3534;49.960;8.018;2023-07-31T04:16:23;19.80;99.90
6988;DHT22;3534;49.960;8.018;2023-07-31T04:18:50;19.80;99.90
6988;DHT22;3534;49.960;8.018;2023-07-31T04:21:17;19.80;99.90
6988;DHT22;3534;49.960;8.018;2023-07-31T04:23:44;19.70;99.90
6988;DHT22;3534;49.960;8.018;2023-07-31T04:26:10;19.70;99.90
6988;DHT22;3534;49.960;8.018;2023-07-31T04:28:37;19.70;99.90
6988;DHT22;3534;49.960;8.018;2023-07-31T04:31:04;19.70;99.90
6988;DHT22;3534;49.960;8.018;2023-07-31T04:33:32;19.70;99.90
6988;DHT22;3534;49.960;8.018;2023-07-31T04:35:59;19.70;99.90
6988;DHT22;3534;49.960;8.018;2023-07-31T04:38:26;19.70;99.90
6988;DHT22;3534;49.960;8.018;2023-07-31T04:40:53;19.70;99.90
6988;DHT22;3534;49.960;8.018;2023-07-31T04:43:19;19.70;99.90
6988;DHT22;3534;49.960;8.018;2023-07-31T04:45:46;19.70;99.90
6988;DHT22;3534;49.960;8.018;2023-07-31T04:48:14;19.60;99.90
6988;DHT22;3534;49.960;8.018;2023-07-31T04:50:42;19.60;99.90
6988;DHT22;3534;49.960;8.018;2023-07-31T04:53:09;19.60;99.90
6988;DHT22;3534;49.960;8.018;2023-07-31T04:55:36;19.60;99.90
6988;DHT22;3534;49.960;8.018;2023-07-31T04:58:03;19.60;99.90
6988;DHT22;3534;49.960;8.018;2023-07-31T05:00:30;19.60;99.90
6988;DHT22;3534;49.960;8.018;2023-07-31T05:02:56;19.60;99.90
6988;DHT22;3534;49.960;8.018;2023-07-31T05:05:23;19.60;99.90
6988;DHT22;3534;49.960;8.018;2023-07-31T05:07:51;19.60;99.90
6988;DHT22;3534;49.960;8.018;2023-07-31T05:10:18;19.60;99.90
6988;DHT22;3534;49.960;8.018;2023-07-31T05:12:45;19.60;99.90
6988;DHT22;3534;49.960;8.018;2023-07-31T05:15:12;19.60;99.90
6988;DHT22;3534;49.960;8.018;2023-07-31T05:17:38;19.60;99.90
6988;DHT22;3534;49.960;8.018;2023-07-31T05:20:06;19.60;99.90
6988;DHT22;3534;49.960;8.018;2023-07-31T05:22:34;19.50;99.90
6988;DHT22;3534;49.960;8.018;2023-07-31T05:25:03;19.60;99.90
6988;DHT22;3534;49.960;8.018;2023-07-31T05:27:30;19.60;99.90
6988;DHT22;3534;49.960;8.018;2023-07-31T05:29:56;19.60;99.90
6988;DHT22;3534;49.960;8.018;2023-07-31T05:32:23;19.50;99.90
6988;DHT22;3534;49.960;8.018;2023-07-31T05:34:51;19.60;99.90
6988;DHT22;3534;49.960;8.018;2023-07-31T05:37:18;19.60;99.90
6988;DHT22;3534;49.960;8.018;2023-07-31T05:39:45;19.60;99.90
6988;DHT22;3534;49.960;8.018;2023-07-31T05:42:13;19.60;99.90
6988;DHT22;3534;49.960;8.018;2023-07-31T05:44:40;19.60;99.90
6988;DHT22;3534;49.960;8.018;2023-07-31T05:47:07;19.60;99.90
6988;DHT22;3534;49.960;8.018;2023-07-31T05:49:34;19.60;99.90
6988;DHT22;3534;49.960;8.018;2023-07-31T05:52:01;19.60;99.90
6988;DHT22;3534;49.960;8.018;2023-07-31T05:54:27;19.60;99.90
6988;DHT22;3534;49.960;8.018;2023-07-31T05:56:54;19.60;99.90
6988;DHT22;3534;49.960;8.018;2023-07-31T05:59:22;19.70;99.90
6988;DHT22;3534;49.960;8.018;2023-07-31T06:01:49;19.70;99.90
6988;DHT22;3534;49.960;8.018;2023-07-31T06:04:16;19.70;99.90
6988;DHT22;3534;49.960;8.018;2023-07-31T06:06:43;19.70;99.90
6988;DHT22;3534;49.960;8.018;2023-07-31T06:09:10;19.80;99.90
6988;DHT22;3534;49.960;8.018;2023-07-31T06:11:37;19.80;99.90
6988;DHT22;3534;49.960;8.018;2023-07-31T06:14:04;19.80;99.90
6988;DHT22;3534;49.960;8.018;2023-07-31T06:16:32;19.80;99.90
6988;DHT22;3534;49.960;8.018;2023-07-31T06:18:59;19.90;99.90
6988;DHT22;3534;49.960;8.018;2023-07-31T06:21:25;19.90;99.90
6988;DHT22;3534;49.960;8.018;2023-07-31T06:23:52;19.90;99.90
6988;DHT22;3534;49.960;8.018;2023-07-31T06:26:19;19.90;99.90
6988;DHT22;3534;49.960;8.018;2023-07-31T06:28:46;19.90;99.90
6988;DHT22;3534;49.960;8.018;2023-07-31T06:31:13;19.90;99.90
6988;DHT22;3534;49.960;8.018;2023-07-31T06:33:41;19.90;99.90
6988;DHT22;3534;49.960;8.018;2023-07-31T06:36:07;19.90;99.90
6988;DHT22;3534;49.960;8.018;2023-07-31T06:38:34;19.90;99.90
6988;DHT22;3534;49.960;8.018;2023-07-31T06:41:02;19.90;99.90
6988;DHT22;3534;49.960;8.018;2023-07-31T06:43:29;20.00;99.90
6988;DHT22;3534;49.960;8.018;2023-07-31T06:45:56;20.00;99.90
6988;DHT22;3534;49.960;8.018;2023-07-31T06:48:23;20.00;99.90
6988;DHT22;3534;49.960;8.018;2023-07-31T06:50:51;20.10;99.90
6988;DHT22;3534;49.960;8.018;2023-07-31T06:53:18;20.10;99.90
6988;DHT22;3534;49.960;8.018;2023-07-31T06:55:45;20.20;99.90
6988;DHT22;3534;49.960;8.018;2023-07-31T06:58:13;20.20;99.90
6988;DHT22;3534;49.960;8.018;2023-07-31T07:00:40;20.30;99.90
6988;DHT22;3534;49.960;8.018;2023-07-31T07:03:07;20.30;99.90
6988;DHT22;3534;49.960;8.018;2023-07-31T07:05:34;20.30;99.90
6988;DHT22;3534;49.960;8.018;2023-07-31T07:08:02;20.30;99.90
6988;DHT22;3534;49.960;8.018;2023-07-31T07:10:29;20.30;99.90
6988;DHT22;3534;49.960;8.018;2023-07-31T07:12:55;20.40;99.90
6988;DHT22;3534;49.960;8.018;2023-07-31T07:15:22;20.40;99.90
6988;DHT22;3534;49.960;8.018;2023-07-31T07:17:49;20.50;99.90
6988;DHT22;3534;49.960;8.018;2023-07-31T07:20:16;20.50;99.90
6988;DHT22;3534;49.960;8.018;2023-07-31T07:22:43;20.60;99.90
6988;DHT22;3534;49.960;8.018;2023-07-31T07:25:11;20.60;99.90
6988;DHT22;3534;49.960;8.018;2023-07-31T07:27:37;20.70;99.90
6988;DHT22;3534;49.960;8.018;2023-07-31T07:30:05;20.70;99.90
6988;DHT22;3534;49.960;8.018;2023-07-31T07:32:32;20.70;99.90
6988;DHT22;3534;49.960;8.018;2023-07-31T07:34:59;20.60;99.90
6988;DHT22;3534;49.960;8.018;2023-07-31T07:37:26;20.60;99.90
6988;DHT22;3534;49.960;8.018;2023-07-31T07:39:53;20.60;99.90
6988;DHT22;3534;49.960;8.018;2023-07-31T07:42:21;20.70;99.90
6988;DHT22;3534;49.960;8.018;2023-07-31T07:44:48;20.70;99.90
6988;DHT22;3534;49.960;8.018;2023-07-31T07:47:15;20.70;99.90
6988;DHT22;3534;49.960;8.018;2023-07-31T07:49:42;20.70;99.90
6988;DHT22;3534;49.960;8.018;2023-07-31T07:52:09;20.70;99.90
6988;DHT22;3534;49.960;8.018;2023-07-31T07:54:35;20.70;99.90
6988;DHT22;3534;49.960;8.018;2023-07-31T07:57:03;20.80;99.90
6988;DHT22;3534;49.960;8.018;2023-07-31T07:59:31;20.80;99.90
6988;DHT22;3534;49.960;8.018;2023-07-31T08:01:58;20.80;99.90
6988;DHT22;3534;49.960;8.018;2023-07-31T08:04:24;20.90;99.90
6988;DHT22;3534;49.960;8.018;2023-07-31T08:06:51;20.90;99.90
6988;DHT22;3534;49.960;8.018;2023-07-31T08:09:18;20.90;99.90
6988;DHT22;3534;49.960;8.018;2023-07-31T08:11:45;21.00;99.90
6988;DHT22;3534;49.960;8.018;2023-07-31T08:14:11;21.00;99.90
6988;DHT22;3534;49.960;8.018;2023-07-31T08:16:40;21.00;99.90
6988;DHT22;3534;49.960;8.018;2023-07-31T08:19:06;21.10;99.90
6988;DHT22;3534;49.960;8.018;2023-07-31T08:21:33;21.10;99.90
6988;DHT22;3534;49.960;8.018;2023-07-31T08:24:00;21.10;99.90
6988;DHT22;3534;49.960;8.018;2023-07-31T08:26:27;21.10;99.90
6988;DHT22;3534;49.960;8.018;2023-07-31T08:28:53;21.20;99.90
6988;DHT22;3534;49.960;8.018;2023-07-31T08:31:20;21.20;99.90
6988;DHT22;3534;49.960;8.018;2023-07-31T08:33:48;21.20;99.90
6988;DHT22;3534;49.960;8.018;2023-07-31T08:36:15;21.20;99.90
6988;DHT22;3534;49.960;8.018;2023-07-31T08:38:42;21.20;99.90
6988;DHT22;3534;49.960;8.018;2023-07-31T08:41:09;21.20;99.90
6988;DHT22;3534;49.960;8.018;2023-07-31T08:43:36;21.20;99.90
6988;DHT22;3534;49.960;8.018;2023-07-31T08:46:04;21.20;99.90
6988;DHT22;3534;49.960;8.018;2023-07-31T08:48:32;21.30;99.90
6988;DHT22;3534;49.960;8.018;2023-07-31T08:51:00;21.30;99.90
6988;DHT22;3534;49.960;8.018;2023-07-31T08:53:27;21.30;99.90
6988;DHT22;3534;49.960;8.018;2023-07-31T08:55:53;21.40;99.90
6988;DHT22;3534;49.960;8.018;2023-07-31T08:58:21;21.40;99.90
6988;DHT22;3534;49.960;8.018;2023-07-31T09:00:50;21.50;99.90
6988;DHT22;3534;49.960;8.018;2023-07-31T09:03:18;21.50;99.90
6988;DHT22;3534;49.960;8.018;2023-07-31T09:05:47;21.60;99.90
6988;DHT22;3534;49.960;8.018;2023-07-31T09:08:18;21.60;99.90
6988;DHT22;3534;49.960;8.018;2023-07-31T09:10:46;21.70;99.90
6988;DHT22;3534;49.960;8.018;2023-07-31T09:13:15;21.80;99.90
6988;DHT22;3534;49.960;8.018;2023-07-31T09:15:43;21.80;99.90
6988;DHT22;3534;49.960;8.018;2023-07-31T09:18:11;21.90;99.90
6988;DHT22;3534;49.960;8.018;2023-07-31T09:20:38;21.90;99.90
6988;DHT22;3534;49.960;8.018;2023-07-31T09:23:06;22.00;99.90
6988;DHT22;3534;49.960;8.018;2023-07-31T09:25:35;22.00;99.90
6988;DHT22;3534;49.960;8.018;2023-07-31T09:28:04;22.10;99.90
6988;DHT22;3534;49.960;8.018;2023-07-31T09:30:32;22.10;99.90
6988;DHT22;3534;49.960;8.018;2023-07-31T09:33:10;22.10;99.90
6988;DHT22;3534;49.960;8.018;2023-07-31T09:35:36;22.10;99.90
6988;DHT22;3534;49.960;8.018;2023-07-31T09:38:07;22.10;99.90
6988;DHT22;3534;49.960;8.018;2023-07-31T09:40:37;22.20;99.90
6988;DHT22;3534;49.960;8.018;2023-07-31T09:43:06;22.30;99.90
6988;DHT22;3534;49.960;8.018;2023-07-31T09:45:35;22.20;99.90
6988;DHT22;3534;49.960;8.018;2023-07-31T09:48:02;22.30;99.90
6988;DHT22;3534;49.960;8.018;2023-07-31T09:50:29;22.30;99.90
6988;DHT22;3534;49.960;8.018;2023-07-31T09:52:56;22.40;99.90
6988;DHT22;3534;49.960;8.018;2023-07-31T09:55:24;22.40;99.90
6988;DHT22;3534;49.960;8.018;2023-07-31T09:57:53;22.40;99.90
6988;DHT22;3534;49.960;8.018;2023-07-31T10:00:21;22.30;99.90
6988;DHT22;3534;49.960;8.018;2023-07-31T10:02:51;22.30;99.90
6988;DHT22;3534;49.960;8.018;2023-07-31T10:05:19;22.30;99.90
6988;DHT22;3534;49.960;8.018;2023-07-31T10:07:51;22.30;99.90
6988;DHT22;3534;49.960;8.018;2023-07-31T10:10:21;22.30;99.90
6988;DHT22;3534;49.960;8.018;2023-07-31T10:12:49;22.30;99.90
6988;DHT22;3534;49.960;8.018;2023-07-31T10:15:17;22.40;99.90
6988;DHT22;3534;49.960;8.018;2023-07-31T10:17:47;22.40;99.90
6988;DHT22;3534;49.960;8.018;2023-07-31T10:20:14;22.40;99.90
6988;DHT22;3534;49.960;8.018;2023-07-31T10:22:43;22.40;99.90
6988;DHT22;3534;49.960;8.018;2023-07-31T10:25:11;22.40;99.90
6988;DHT22;3534;49.960;8.018;2023-07-31T10:27:39;22.40;99.90
6988;DHT22;3534;49.960;8.018;2023-07-31T10:30:08;22.40;99.90
6988;DHT22;3534;49.960;8.018;2023-07-31T10:32:38;22.30;99.90
6988;DHT22;3534;49.960;8.018;2023-07-31T10:35:08;22.30;99.90
6988;DHT22;3534;49.960;8.018;2023-07-31T10:37:37;22.30;99.90
6988;DHT22;3534;49.960;8.018;2023-07-31T10:40:05;22.30;99.90
6988;DHT22;3534;49.960;8.018;2023-07-31T10:42:34;22.30;99.90
6988;DHT22;3534;49.960;8.018;2023-07-31T10:45:03;22.30;99.90
6988;DHT22;3534;49.960;8.018;2023-07-31T10:47:30;22.30;99.90
6988;DHT22;3534;49.960;8.018;2023-07-31T10:50:18;22.40;99.90
6988;DHT22;3534;49.960;8.018;2023-07-31T10:52:49;22.40;99.90
6988;DHT22;3534;49.960;8.018;2023-07-31T10:55:31;22.40;99.90
6988;DHT22;3534;49.960;8.018;2023-07-31T10:58:05;22.50;99.90
6988;DHT22;3534;49.960;8.018;2023-07-31T11:00:32;22.50;99.90
6988;DHT22;3534;49.960;8.018;2023-07-31T11:03:03;22.50;99.90
6988;DHT22;3534;49.960;8.018;2023-07-31T11:05:51;22.50;99.90
6988;DHT22;3534;49.960;8.018;2023-07-31T11:08:22;22.60;99.90
6988;DHT22;3534;49.960;8.018;2023-07-31T11:10:50;22.60;99.90
6988;DHT22;3534;49.960;8.018;2023-07-31T11:13:18;22.60;99.90
6988;DHT22;3534;49.960;8.018;2023-07-31T11:15:45;22.60;99.90
6988;DHT22;3534;49.960;8.018;2023-07-31T11:18:11;22.60;99.90
6988;DHT22;3534;49.960;8.018;2023-07-31T11:20:39;22.50;99.90
6988;DHT22;3534;49.960;8.018;2023-07-31T11:23:09;22.60;99.90
6988;DHT22;3534;49.960;8.018;2023-07-31T11:25:36;22.60;99.90
6988;DHT22;3534;49.960;8.018;2023-07-31T11:28:04;22.60;99.90
6988;DHT22;3534;49.960;8.018;2023-07-31T11:30:32;22.60;99.90
6988;DHT22;3534;49.960;8.018;2023-07-31T11:33:00;22.70;99.90
6988;DHT22;3534;49.960;8.018;2023-07-31T11:35:28;22.70;99.90
6988;DHT22;3534;49.960;8.018;2023-07-31T11:37:55;22.70;99.90
6988;DHT22;3534;49.960;8.018;2023-07-31T11:40:23;22.70;99.90
6988;DHT22;3534;49.960;8.018;2023-07-31T11:42:54;22.70;99.90
6988;DHT22;3534;49.960;8.018;2023-07-31T11:45:24;22.70;99.90
6988;DHT22;3534;49.960;8.018;2023-07-31T11:47:52;22.70;99.90
6988;DHT22;3534;49.960;8.018;2023-07-31T11:50:20;22.70;99.90
6988;DHT22;3534;49.960;8.018;2023-07-31T11:52:48;22.70;99.90
6988;DHT22;3534;49.960;8.018;2023-07-31T11:55:16;22.70;99.90
6988;DHT22;3534;49.960;8.018;2023-07-31T11:57:44;22.80;99.90
6988;DHT22;3534;49.960;8.018;2023-07-31T12:00:13;22.70;99.90
6988;DHT22;3534;49.960;8.018;2023-07-31T12:02:40;22.70;99.90
6988;DHT22;3534;49.960;8.018;2023-07-31T12:05:10;22.70;99.90
6988;DHT22;3534;49.960;8.018;2023-07-31T12:07:45;22.70;99.90
6988;DHT22;3534;49.960;8.018;2023-07-31T12:10:23;22.70;99.90
6988;DHT22;3534;49.960;8.018;2023-07-31T12:12:58;22.70;99.90
6988;DHT22;3534;49.960;8.018;2023-07-31T12:15:32;22.70;99.90
6988;DHT22;3534;49.960;8.018;2023-07-31T12:17:59;22.80;99.90
6988;DHT22;3534;49.960;8.018;2023-07-31T12:20:26;22.80;99.90
6988;DHT22;3534;49.960;8.018;2023-07-31T12:22:56;22.80;99.90
6988;DHT22;3534;49.960;8.018;2023-07-31T12:25:28;22.90;99.90
6988;DHT22;3534;49.960;8.018;2023-07-31T12:27:54;22.90;99.90
6988;DHT22;3534;49.960;8.018;2023-07-31T12:30:29;23.00;99.90
6988;DHT22;3534;49.960;8.018;2023-07-31T12:32:56;23.00;99.90
6988;DHT22;3534;49.960;8.018;2023-07-31T12:35:23;23.10;99.90
6988;DHT22;3534;49.960;8.018;2023-07-31T12:37:50;23.20;99.90
6988;DHT22;3534;49.960;8.018;2023-07-31T12:40:16;23.30;99.90
6988;DHT22;3534;49.960;8.018;2023-07-31T12:42:43;23.40;99.90
6988;DHT22;3534;49.960;8.018;2023-07-31T12:45:10;23.40;99.90
6988;DHT22;3534;49.960;8.018;2023-07-31T12:47:38;23.40;99.90
6988;DHT22;3534;49.960;8.018;2023-07-31T12:50:06;23.40;99.90
6988;DHT22;3534;49.960;8.018;2023-07-31T12:52:33;23.40;99.90
6988;DHT22;3534;49.960;8.018;2023-07-31T12:55:00;23.30;99.90
6988;DHT22;3534;49.960;8.018;2023-07-31T12:57:27;23.40;99.90
6988;DHT22;3534;49.960;8.018;2023-07-31T12:59:54;23.30;99.90
6988;DHT22;3534;49.960;8.018;2023-07-31T13:02:20;23.30;99.90
6988;DHT22;3534;49.960;8.018;2023-07-31T13:04:49;23.30;99.90
6988;DHT22;3534;49.960;8.018;2023-07-31T13:07:16;23.30;99.90
6988;DHT22;3534;49.960;8.018;2023-07-31T13:09:43;23.30;99.90
6988;DHT22;3534;49.960;8.018;2023-07-31T13:12:10;23.40;99.90
6988;DHT22;3534;49.960;8.018;2023-07-31T13:14:37;23.30;99.90
6988;DHT22;3534;49.960;8.018;2023-07-31T13:17:03;23.30;99.90
6988;DHT22;3534;49.960;8.018;2023-07-31T13:19:30;23.40;99.90
6988;DHT22;3534;49.960;8.018;2023-07-31T13:21:58;23.30;99.90
6988;DHT22;3534;49.960;8.018;2023-07-31T13:24:25;23.30;99.90
6988;DHT22;3534;49.960;8.018;2023-07-31T13:26:52;23.30;99.90
6988;DHT22;3534;49.960;8.018;2023-07-31T13:29:18;23.30;99.90
6988;DHT22;3534;49.960;8.018;2023-07-31T13:31:47;23.30;99.90
6988;DHT22;3534;49.960;8.018;2023-07-31T13:34:14;23.30;99.90
6988;DHT22;3534;49.960;8.018;2023-07-31T13:36:40;23.30;99.90
6988;DHT22;3534;49.960;8.018;2023-07-31T13:39:09;23.20;99.90
6988;DHT22;3534;49.960;8.018;2023-07-31T13:41:36;23.20;99.90
6988;DHT22;3534;49.960;8.018;2023-07-31T13:44:03;23.10;99.90
6988;DHT22;3534;49.960;8.018;2023-07-31T13:46:29;23.00;99.90
6988;DHT22;3534;49.960;8.018;2023-07-31T13:48:57;23.00;99.90
6988;DHT22;3534;49.960;8.018;2023-07-31T13:51:25;23.00;99.90
6988;DHT22;3534;49.960;8.018;2023-07-31T13:53:53;23.00;99.90
6988;DHT22;3534;49.960;8.018;2023-07-31T13:56:21;23.00;99.90
6988;DHT22;3534;49.960;8.018;2023-07-31T13:58:48;22.90;99.90
6988;DHT22;3534;49.960;8.018;2023-07-31T14:01:15;22.90;99.90
6988;DHT22;3534;49.960;8.018;2023-07-31T14:03:41;22.90;99.90
6988;DHT22;3534;49.960;8.018;2023-07-31T14:06:08;22.90;99.90
6988;DHT22;3534;49.960;8.018;2023-07-31T14:08:35;22.90;99.90
6988;DHT22;3534;49.960;8.018;2023-07-31T14:11:02;22.90;99.90
6988;DHT22;3534;49.960;8.018;2023-07-31T14:13:30;22.90;99.90
6988;DHT22;3534;49.960;8.018;2023-07-31T14:15:57;22.90;99.90
6988;DHT22;3534;49.960;8.018;2023-07-31T14:18:23;22.90;99.90
6988;DHT22;3534;49.960;8.018;2023-07-31T14:20:51;22.90;99.90
6988;DHT22;3534;49.960;8.018;2023-07-31T14:23:17;22.90;99.90
6988;DHT22;3534;49.960;8.018;2023-07-31T14:25:45;22.80;99.90
6988;DHT22;3534;49.960;8.018;2023-07-31T14:28:12;22.80;99.90
6988;DHT22;3534;49.960;8.018;2023-07-31T14:30:40;22.90;99.90
6988;DHT22;3534;49.960;8.018;2023-07-31T14:33:06;22.80;99.90
6988;DHT22;3534;49.960;8.018;2023-07-31T14:35:34;22.80;99.90
6988;DHT22;3534;49.960;8.018;2023-07-31T14:38:01;22.70;99.90
6988;DHT22;3534;49.960;8.018;2023-07-31T14:40:28;22.60;99.90
6988;DHT22;3534;49.960;8.018;2023-07-31T14:42:54;22.60;99.90
6988;DHT22;3534;49.960;8.018;2023-07-31T14:45:21;22.60;99.90
6988;DHT22;3534;49.960;8.018;2023-07-31T14:47:49;22.60;99.90
6988;DHT22;3534;49.960;8.018;2023-07-31T14:50:16;22.60;99.90
6988;DHT22;3534;49.960;8.018;2023-07-31T14:52:43;22.60;99.90
6988;DHT22;3534;49.960;8.018;2023-07-31T14:55:10;22.50;99.90
6988;DHT22;3534;49.960;8.018;2023-07-31T14:57:37;22.50;99.90
6988;DHT22;3534;49.960;8.018;2023-07-31T15:00:04;22.50;99.90
6988;DHT22;3534;49.960;8.018;2023-07-31T15:02:34;22.50;99.90
6988;DHT22;3534;49.960;8.018;2023-07-31T15:05:02;22.40;99.90
6988;DHT22;3534;49.960;8.018;2023-07-31T15:07:29;22.40;99.90
6988;DHT22;3534;49.960;8.018;2023-07-31T15:09:55;22.40;99.90
6988;DHT22;3534;49.960;8.018;2023-07-31T15:12:22;22.40;99.90
6988;DHT22;3534;49.960;8.018;2023-07-31T15:14:49;22.40;99.90
6988;DHT22;3534;49.960;8.018;2023-07-31T15:17:17;22.40;99.90
6988;DHT22;3534;49.960;8.018;2023-07-31T15:19:44;22.40;99.90
6988;DHT22;3534;49.960;8.018;2023-07-31T15:22:12;22.30;99.90
6988;DHT22;3534;49.960;8.018;2023-07-31T15:24:39;22.30;99.90
6988;DHT22;3534;49.960;8.018;2023-07-31T15:27:06;22.30;99.90
6988;DHT22;3534;49.960;8.018;2023-07-31T15:29:34;22.30;99.90
6988;DHT22;3534;49.960;8.018;2023-07-31T15:32:03;22.30;99.90
6988;DHT22;3534;49.960;8.018;2023-07-31T15:34:30;22.30;99.90
6988;DHT22;3534;49.960;8.018;2023-07-31T15:36:57;22.30;99.90
6988;DHT22;3534;49.960;8.018;2023-07-31T15:39:25;22.30;99.90
6988;DHT22;3534;49.960;8.018;2023-07-31T15:41:52;22.30;99.90
6988;DHT22;3534;49.960;8.018;2023-07-31T15:44:19;22.20;99.90
6988;DHT22;3534;49.960;8.018;2023-07-31T15:46:47;22.30;99.90
6988;DHT22;3534;49.960;8.018;2023-07-31T15:49:13;22.30;99.90
6988;DHT22;3534;49.960;8.018;2023-07-31T15:51:40;22.30;99.90
6988;DHT22;3534;49.960;8.018;2023-07-31T15:54:07;22.20;99.90
6988;DHT22;3534;49.960;8.018;2023-07-31T15:56:35;22.30;99.90
6988;DHT22;3534;49.960;8.018;2023-07-31T15:59:02;22.30;99.90
6988;DHT22;3534;49.960;8.018;2023-07-31T16:01:30;22.30;99.90
6988;DHT22;3534;49.960;8.018;2023-07-31T16:03:56;22.30;99.90
6988;DHT22;3534;49.960;8.018;2023-07-31T16:06:23;22.20;99.90